createdAt,value
2019-04-22T00:00:40.734Z,1018.57
2019-04-22T00:01:43.508Z,1018.59
2019-04-22T00:02:52.600Z,1018.59
2019-04-22T00:04:00.502Z,1018.56
2019-04-22T00:05:07.291Z,1018.57
2019-04-22T00:06:22.517Z,1018.56
2019-04-22T00:07:34.236Z,1018.56
2019-04-22T00:08:36.210Z,1018.56
2019-04-22T00:09:41.816Z,1018.53
2019-04-22T00:10:52.675Z,1018.56
2019-04-22T00:11:49.399Z,1018.54
2019-04-22T00:12:57.406Z,1018.53
2019-04-22T00:13:58.154Z,1018.53
2019-04-22T00:14:55.505Z,1018.51
2019-04-22T00:15:59.270Z,1018.50
2019-04-22T00:17:16.658Z,1018.50
2019-04-22T00:18:13.424Z,1018.47
2019-04-22T00:20:22.692Z,1018.48
2019-04-22T00:21:25.739Z,1018.47
2019-04-22T00:22:30.208Z,1018.49
2019-04-22T00:23:36.945Z,1018.51
2019-04-22T00:24:36.642Z,1018.51
2019-04-22T00:25:42.105Z,1018.51
2019-04-22T00:26:51.313Z,1018.50
2019-04-22T00:28:59.291Z,1018.52
2019-04-22T00:31:06.708Z,1018.53
2019-04-22T00:32:05.659Z,1018.54
2019-04-22T00:33:11.676Z,1018.52
2019-04-22T00:34:14.394Z,1018.51
2019-04-22T00:35:18.248Z,1018.49
2019-04-22T00:36:23.752Z,1018.48
2019-04-22T00:37:28.806Z,1018.48
2019-04-22T00:39:55.100Z,1018.47
2019-04-22T00:40:39.745Z,1018.46
2019-04-22T00:41:48.755Z,1018.48
2019-04-22T00:42:53.053Z,1018.48
2019-04-22T00:43:56.775Z,1018.48
2019-04-22T00:45:00.802Z,1018.44
2019-04-22T00:46:02.925Z,1018.46
2019-04-22T00:47:07.267Z,1018.44
2019-04-22T00:48:16.435Z,1018.44
2019-04-22T00:49:59.831Z,1018.43
2019-04-22T00:51:29.049Z,1018.43
2019-04-22T00:52:28.124Z,1018.43
2019-04-22T00:53:36.026Z,1018.41
2019-04-22T00:54:42.208Z,1018.42
2019-04-22T00:55:40.402Z,1018.39
2019-04-22T00:56:42.208Z,1018.41
2019-04-22T00:57:52.024Z,1018.41
2019-04-22T00:58:54.745Z,1018.42
2019-04-22T00:59:58.232Z,1018.45
2019-04-22T01:01:03.366Z,1018.41
2019-04-22T01:02:06.798Z,1018.39
2019-04-22T01:03:19.699Z,1018.39
2019-04-22T01:04:23.124Z,1018.39
2019-04-22T01:05:21.353Z,1018.40
2019-04-22T01:07:27.118Z,1018.39
2019-04-22T01:08:43.193Z,1018.40
2019-04-22T01:09:41.852Z,1018.40
2019-04-22T01:11:44.999Z,1018.39
2019-04-22T01:12:50.002Z,1018.38
2019-04-22T01:13:55.675Z,1018.38
2019-04-22T01:15:01.107Z,1018.38
2019-04-22T01:16:09.464Z,1018.37
2019-04-22T01:17:06.396Z,1018.36
2019-04-22T01:18:13.173Z,1018.34
2019-04-22T01:19:17.711Z,1018.33
2019-04-22T01:20:37.830Z,1018.31
2019-04-22T01:21:28.917Z,1018.29
2019-04-22T01:22:38.376Z,1018.28
2019-04-22T01:23:27.818Z,1018.30
2019-04-22T01:24:37.104Z,1018.30
2019-04-22T01:25:39.228Z,1018.30
2019-04-22T01:26:36.287Z,1018.32
2019-04-22T01:27:41.829Z,1018.33
2019-04-22T01:28:42.269Z,1018.33
2019-04-22T01:29:46.735Z,1018.36
2019-04-22T01:30:46.904Z,1018.35
2019-04-22T01:31:43.843Z,1018.34
2019-04-22T01:32:49.332Z,1018.33
2019-04-22T01:34:08.179Z,1018.35
2019-04-22T01:35:08.458Z,1018.36
2019-04-22T01:36:13.694Z,1018.36
2019-04-22T01:37:20.275Z,1018.37
2019-04-22T01:38:23.354Z,1018.36
2019-04-22T01:39:40.362Z,1018.35
2019-04-22T01:40:45.490Z,1018.35
2019-04-22T01:42:16.868Z,1018.34
2019-04-22T01:42:56.020Z,1018.32
2019-04-22T01:44:03.278Z,1018.31
2019-04-22T01:45:03.346Z,1018.29
2019-04-22T01:46:03.006Z,1018.29
2019-04-22T01:47:06.608Z,1018.29
2019-04-22T01:48:10.475Z,1018.26
2019-04-22T01:49:18.922Z,1018.26
2019-04-22T01:50:24.045Z,1018.25
2019-04-22T01:51:35.457Z,1018.26
2019-04-22T01:52:23.736Z,1018.25
2019-04-22T01:53:33.727Z,1018.26
2019-04-22T01:54:45.493Z,1018.24
2019-04-22T01:55:39.873Z,1018.22
2019-04-22T01:56:51.350Z,1018.24
2019-04-22T01:57:47.512Z,1018.23
2019-04-22T01:58:48.243Z,1018.25
2019-04-22T01:59:45.825Z,1018.23
2019-04-22T02:01:00.234Z,1018.23
2019-04-22T02:02:07.781Z,1018.25
2019-04-22T02:03:14.110Z,1018.23
2019-04-22T02:04:24.048Z,1018.21
2019-04-22T02:05:17.702Z,1018.22
2019-04-22T02:06:27.690Z,1018.25
2019-04-22T02:07:23.550Z,1018.25
2019-04-22T02:08:37.940Z,1018.25
2019-04-22T02:09:53.425Z,1018.26
2019-04-22T02:10:39.153Z,1018.25
2019-04-22T02:11:45.503Z,1018.24
2019-04-22T02:12:46.996Z,1018.29
2019-04-22T02:13:52.346Z,1018.26
2019-04-22T02:14:50.366Z,1018.29
2019-04-22T02:15:58.777Z,1018.27
2019-04-22T02:18:18.339Z,1018.25
2019-04-22T02:19:20.719Z,1018.23
2019-04-22T02:20:16.887Z,1018.25
2019-04-22T02:21:20.441Z,1018.24
2019-04-22T02:22:42.838Z,1018.24
2019-04-22T02:24:41.203Z,1018.21
2019-04-22T02:25:42.789Z,1018.19
2019-04-22T02:26:40.179Z,1018.18
2019-04-22T02:27:46.105Z,1018.19
2019-04-22T02:28:47.981Z,1018.15
2019-04-22T02:29:51.976Z,1018.15
2019-04-22T02:31:22.977Z,1018.15
2019-04-22T02:32:24.764Z,1018.15
2019-04-22T02:33:40.929Z,1018.13
2019-04-22T02:34:37.471Z,1018.12
2019-04-22T02:35:36.580Z,1018.11
2019-04-22T02:37:35.950Z,1018.10
2019-04-22T02:39:34.485Z,1018.07
2019-04-22T02:40:56.239Z,1018.07
2019-04-22T02:41:41.553Z,1018.07
2019-04-22T02:42:58.105Z,1018.08
2019-04-22T02:44:04.074Z,1018.07
2019-04-22T02:44:53.612Z,1018.08
2019-04-22T02:47:15.566Z,1018.03
2019-04-22T02:48:26.065Z,1018.02
2019-04-22T02:49:22.659Z,1018.00
2019-04-22T02:51:26.171Z,1017.98
2019-04-22T02:52:31.014Z,1017.99
2019-04-22T02:54:11.636Z,1017.98
2019-04-22T02:55:44.269Z,1017.96
2019-04-22T02:59:03.545Z,1017.90
2019-04-22T03:01:05.423Z,1017.89
2019-04-22T03:02:07.709Z,1017.90
2019-04-22T03:04:20.635Z,1017.87
2019-04-22T03:05:27.901Z,1017.86
2019-04-22T03:06:32.830Z,1017.87
2019-04-22T03:07:25.880Z,1017.87
2019-04-22T03:09:40.383Z,1017.90
2019-04-22T03:10:49.363Z,1017.90
2019-04-22T03:12:49.008Z,1017.89
2019-04-22T03:14:01.281Z,1017.89
2019-04-22T03:15:07.378Z,1017.90
2019-04-22T03:16:08.344Z,1017.91
2019-04-22T03:17:11.333Z,1017.90
2019-04-22T03:18:09.747Z,1017.89
2019-04-22T03:20:14.226Z,1017.89
2019-04-22T03:21:29.236Z,1017.89
2019-04-22T03:22:21.045Z,1017.88
2019-04-22T03:27:40.141Z,1017.87
2019-04-22T03:29:13.337Z,1017.86
2019-04-22T03:30:16.342Z,1017.89
2019-04-22T03:32:33.494Z,1017.87
2019-04-22T03:36:58.139Z,1017.83
2019-04-22T03:37:34.022Z,1017.84
2019-04-22T03:38:45.672Z,1017.81
2019-04-22T03:39:45.444Z,1017.80
2019-04-22T03:42:05.245Z,1017.79
2019-04-22T03:44:15.088Z,1017.77
2019-04-22T03:45:04.292Z,1017.79
2019-04-22T03:45:51.289Z,1017.79
2019-04-22T03:50:22.054Z,1017.75
2019-04-22T03:52:24.958Z,1017.76
2019-04-22T03:54:39.172Z,1017.81
2019-04-22T03:55:41.332Z,1017.82
2019-04-22T03:57:18.344Z,1017.82
2019-04-22T03:57:49.786Z,1017.82
2019-04-22T03:58:57.000Z,1017.83
2019-04-22T03:59:59.357Z,1017.84
2019-04-22T04:01:06.808Z,1017.84
2019-04-22T04:04:19.155Z,1017.84
2019-04-22T04:08:55.470Z,1017.80
2019-04-22T04:09:49.323Z,1017.79
2019-04-22T04:11:53.956Z,1017.81
2019-04-22T04:13:52.179Z,1017.79
2019-04-22T04:15:55.755Z,1017.77
2019-04-22T04:18:01.318Z,1017.76
2019-04-22T04:19:13.846Z,1017.75
2019-04-22T04:20:21.394Z,1017.75
2019-04-22T04:22:54.077Z,1017.73
2019-04-22T04:23:37.815Z,1017.73
2019-04-22T04:24:46.298Z,1017.73
2019-04-22T04:25:42.214Z,1017.74
2019-04-22T04:27:04.111Z,1017.75
2019-04-22T04:29:05.449Z,1017.75
2019-04-22T04:31:02.652Z,1017.78
2019-04-22T04:32:25.138Z,1017.74
2019-04-22T04:33:05.078Z,1017.75
2019-04-22T04:34:15.169Z,1017.76
2019-04-22T04:35:23.500Z,1017.77
2019-04-22T04:36:28.326Z,1017.76
2019-04-22T04:37:40.677Z,1017.76
2019-04-22T04:38:32.158Z,1017.76
2019-04-22T04:39:40.537Z,1017.75
2019-04-22T04:40:37.708Z,1017.76
2019-04-22T04:42:46.217Z,1017.77
2019-04-22T04:43:59.665Z,1017.77
2019-04-22T04:45:11.034Z,1017.76
2019-04-22T04:46:06.887Z,1017.76
2019-04-22T04:47:17.668Z,1017.77
2019-04-22T04:48:02.416Z,1017.77
2019-04-22T04:49:19.197Z,1017.78
2019-04-22T04:50:22.607Z,1017.78
2019-04-22T04:52:39.819Z,1017.79
2019-04-22T04:53:53.139Z,1017.81
2019-04-22T04:54:35.960Z,1017.82
2019-04-22T04:56:40.336Z,1017.83
2019-04-22T04:57:56.926Z,1017.86
2019-04-22T04:59:11.955Z,1017.87
2019-04-22T05:00:22.061Z,1017.86
2019-04-22T05:02:06.684Z,1017.86
2019-04-22T05:05:20.305Z,1017.87
2019-04-22T05:06:21.448Z,1017.86
2019-04-22T05:07:36.185Z,1017.86
2019-04-22T05:08:54.379Z,1017.86
2019-04-22T05:09:26.317Z,1017.86
2019-04-22T05:12:03.554Z,1017.81
2019-04-22T05:14:55.118Z,1017.81
2019-04-22T05:16:11.193Z,1017.80
2019-04-22T05:17:18.342Z,1017.81
2019-04-22T05:18:06.095Z,1017.83
2019-04-22T05:21:16.324Z,1017.83
2019-04-22T05:22:20.771Z,1017.82
2019-04-22T05:23:33.340Z,1017.81
2019-04-22T05:25:28.563Z,1017.82
2019-04-22T05:26:46.628Z,1017.83
2019-04-22T05:27:40.034Z,1017.82
2019-04-22T05:28:43.345Z,1017.83
2019-04-22T05:30:57.199Z,1017.82
2019-04-22T05:30:58.959Z,1017.82
2019-04-22T05:32:04.565Z,1017.83
2019-04-22T05:33:01.586Z,1017.84
2019-04-22T05:34:08.127Z,1017.82
2019-04-22T05:36:18.622Z,1017.82
2019-04-22T05:37:22.796Z,1017.75
2019-04-22T05:38:27.976Z,1017.77
2019-04-22T05:39:22.607Z,1017.74
2019-04-22T05:40:41.128Z,1017.74
2019-04-22T05:41:35.316Z,1017.69
2019-04-22T05:42:34.507Z,1017.67
2019-04-22T05:43:42.604Z,1017.68
2019-04-22T05:44:50.015Z,1017.68
2019-04-22T05:45:54.233Z,1017.65
2019-04-22T05:46:58.887Z,1017.65
2019-04-22T05:49:08.211Z,1017.64
2019-04-22T05:50:08.192Z,1017.62
2019-04-22T05:51:21.832Z,1017.60
2019-04-22T05:52:14.818Z,1017.58
2019-04-22T05:53:21.235Z,1017.59
2019-04-22T05:54:27.782Z,1017.56
2019-04-22T05:55:36.283Z,1017.56
2019-04-22T05:56:37.143Z,1017.57
2019-04-22T05:57:38.857Z,1017.56
2019-04-22T05:58:53.313Z,1017.57
2019-04-22T05:59:52.215Z,1017.61
2019-04-22T06:01:23.635Z,1017.60
2019-04-22T06:03:15.346Z,1017.62
2019-04-22T06:05:13.902Z,1017.65
2019-04-22T06:07:25.302Z,1017.68
2019-04-22T06:08:25.648Z,1017.67
2019-04-22T06:09:30.204Z,1017.66
2019-04-22T06:10:39.455Z,1017.65
2019-04-22T06:11:44.784Z,1017.65
2019-04-22T06:12:32.672Z,1017.67
2019-04-22T06:13:38.896Z,1017.68
2019-04-22T06:14:54.255Z,1017.72
2019-04-22T06:15:54.372Z,1017.73
2019-04-22T06:17:10.799Z,1017.73
2019-04-22T06:18:09.586Z,1017.72
2019-04-22T06:20:10.484Z,1017.76
2019-04-22T06:21:22.562Z,1017.80
2019-04-22T06:22:34.316Z,1017.77
2019-04-22T06:24:27.530Z,1017.79
2019-04-22T06:25:55.018Z,1017.78
2019-04-22T06:26:55.934Z,1017.80
2019-04-22T06:27:42.841Z,1017.81
2019-04-22T06:28:48.437Z,1017.79
2019-04-22T06:29:46.339Z,1017.80
2019-04-22T06:33:02.767Z,1017.82
2019-04-22T06:34:17.650Z,1017.84
2019-04-22T06:35:23.293Z,1017.85
2019-04-22T06:36:24.519Z,1017.83
2019-04-22T06:37:32.242Z,1017.83
2019-04-22T06:38:37.634Z,1017.81
2019-04-22T06:39:38.258Z,1017.81
2019-04-22T06:40:42.287Z,1017.80
2019-04-22T06:41:51.651Z,1017.78
2019-04-22T06:42:52.392Z,1017.80
2019-04-22T06:43:56.200Z,1017.78
2019-04-22T06:45:02.733Z,1017.79
2019-04-22T06:46:04.221Z,1017.76
2019-04-22T06:47:05.265Z,1017.76
2019-04-22T06:48:15.341Z,1017.75
2019-04-22T06:49:20.734Z,1017.76
2019-04-22T06:50:16.608Z,1017.75
2019-04-22T06:51:20.080Z,1017.72
2019-04-22T06:52:22.073Z,1017.72
2019-04-22T06:53:29.685Z,1017.74
2019-04-22T06:54:32.915Z,1017.74
2019-04-22T06:55:41.294Z,1017.73
2019-04-22T06:56:43.126Z,1017.74
2019-04-22T06:57:46.087Z,1017.75
2019-04-22T06:58:55.233Z,1017.74
2019-04-22T06:59:59.040Z,1017.72
2019-04-22T07:01:06.151Z,1017.73
2019-04-22T07:03:33.305Z,1017.76
2019-04-22T07:04:14.467Z,1017.77
2019-04-22T07:05:19.739Z,1017.72
2019-04-22T07:06:33.433Z,1017.74
2019-04-22T07:07:29.717Z,1017.76
2019-04-22T07:09:02.441Z,1017.78
2019-04-22T07:10:44.854Z,1017.80
2019-04-22T07:11:47.519Z,1017.82
2019-04-22T07:12:49.279Z,1017.80
2019-04-22T07:14:00.040Z,1017.83
2019-04-22T07:14:53.485Z,1017.83
2019-04-22T07:15:57.468Z,1017.81
2019-04-22T07:17:01.867Z,1017.80
2019-04-22T07:18:11.209Z,1017.81
2019-04-22T07:19:18.425Z,1017.80
2019-04-22T07:20:17.299Z,1017.77
2019-04-22T07:21:23.680Z,1017.77
2019-04-22T07:22:29.298Z,1017.76
2019-04-22T07:23:35.677Z,1017.77
2019-04-22T07:25:41.332Z,1017.76
2019-04-22T07:26:46.945Z,1017.76
2019-04-22T07:27:46.077Z,1017.75
2019-04-22T07:28:50.457Z,1017.73
2019-04-22T07:30:02.028Z,1017.68
2019-04-22T07:31:05.045Z,1017.67
2019-04-22T07:32:06.829Z,1017.64
2019-04-22T07:34:24.062Z,1017.61
2019-04-22T07:35:22.834Z,1017.57
2019-04-22T07:37:39.104Z,1017.55
2019-04-22T07:39:35.615Z,1017.56
2019-04-22T07:40:43.879Z,1017.58
2019-04-22T07:41:47.584Z,1017.65
2019-04-22T07:42:49.093Z,1017.60
2019-04-22T07:44:10.281Z,1017.61
2019-04-22T07:44:59.344Z,1017.62
2019-04-22T07:46:00.348Z,1017.62
2019-04-22T07:47:18.461Z,1017.60
2019-04-22T07:48:24.077Z,1017.62
2019-04-22T07:49:18.825Z,1017.63
2019-04-22T07:51:37.495Z,1017.64
2019-04-22T07:52:27.775Z,1017.64
2019-04-22T07:53:28.986Z,1017.66
2019-04-22T07:54:43.146Z,1017.65
2019-04-22T07:55:40.441Z,1017.65
2019-04-22T07:56:43.892Z,1017.66
2019-04-22T07:57:52.345Z,1017.66
2019-04-22T07:58:56.874Z,1017.69
2019-04-22T08:00:02.979Z,1017.63
2019-04-22T08:01:08.803Z,1017.65
2019-04-22T08:02:12.808Z,1017.69
2019-04-22T08:04:30.287Z,1017.65
2019-04-22T08:05:24.704Z,1017.68
2019-04-22T08:06:26.208Z,1017.66
2019-04-22T08:07:30.357Z,1017.68
2019-04-22T08:08:35.616Z,1017.68
2019-04-22T08:09:44.560Z,1017.66
2019-04-22T08:10:48.621Z,1017.64
2019-04-22T08:11:51.220Z,1017.63
2019-04-22T08:12:55.016Z,1017.65
2019-04-22T08:13:54.619Z,1017.67
2019-04-22T08:15:00.344Z,1017.65
2019-04-22T08:16:04.513Z,1017.65
2019-04-22T08:17:36.268Z,1017.65
2019-04-22T08:18:22.065Z,1017.65
2019-04-22T08:19:23.569Z,1017.66
2019-04-22T08:20:23.742Z,1017.63
2019-04-22T08:21:22.340Z,1017.65
2019-04-22T08:22:27.317Z,1017.65
2019-04-22T08:23:37.433Z,1017.68
2019-04-22T08:24:45.404Z,1017.69
2019-04-22T08:25:43.135Z,1017.67
2019-04-22T08:26:51.335Z,1017.67
2019-04-22T08:27:51.901Z,1017.68
2019-04-22T08:28:57.921Z,1017.71
2019-04-22T08:30:06.482Z,1017.71
2019-04-22T08:31:07.622Z,1017.66
2019-04-22T08:32:28.614Z,1017.65
2019-04-22T08:33:15.962Z,1017.64
2019-04-22T08:34:20.944Z,1017.71
2019-04-22T08:35:29.243Z,1017.63
2019-04-22T08:36:54.056Z,1017.66
2019-04-22T08:38:43.651Z,1017.64
2019-04-22T08:39:54.619Z,1017.66
2019-04-22T08:40:47.261Z,1017.69
2019-04-22T08:42:05.429Z,1017.66
2019-04-22T08:43:09.062Z,1017.64
2019-04-22T08:44:10.561Z,1017.66
2019-04-22T08:45:18.250Z,1017.70
2019-04-22T08:46:13.473Z,1017.62
2019-04-22T08:47:21.827Z,1017.67
2019-04-22T08:48:18.627Z,1017.62
2019-04-22T08:49:16.489Z,1017.63
2019-04-22T08:50:38.848Z,1017.65
2019-04-22T08:52:34.695Z,1017.67
2019-04-22T08:53:40.347Z,1017.61
2019-04-22T08:54:44.315Z,1017.63
2019-04-22T08:56:58.186Z,1017.64
2019-04-22T08:59:07.008Z,1017.60
2019-04-22T09:00:02.927Z,1017.58
2019-04-22T09:01:14.670Z,1017.60
2019-04-22T09:02:19.940Z,1017.59
2019-04-22T09:03:15.968Z,1017.59
2019-04-22T09:04:16.211Z,1017.56
2019-04-22T09:05:42.057Z,1017.50
2019-04-22T09:06:47.856Z,1017.58
2019-04-22T09:07:36.789Z,1017.53
2019-04-22T09:08:40.655Z,1017.58
2019-04-22T09:09:48.952Z,1017.55
2019-04-22T09:10:51.897Z,1017.65
2019-04-22T09:11:54.763Z,1017.54
2019-04-22T09:14:06.195Z,1017.53
2019-04-22T09:15:02.446Z,1017.52
2019-04-22T09:16:10.640Z,1017.55
2019-04-22T09:17:14.781Z,1017.45
2019-04-22T09:18:23.225Z,1017.48
2019-04-22T09:19:23.837Z,1017.49
2019-04-22T09:20:26.801Z,1017.48
2019-04-22T09:21:32.615Z,1017.59
2019-04-22T09:22:38.669Z,1017.52
2019-04-22T09:23:50.588Z,1017.47
2019-04-22T09:25:51.147Z,1017.47
2019-04-22T09:26:54.449Z,1017.48
2019-04-22T09:27:57.184Z,1017.44
2019-04-22T09:29:05.036Z,1017.42
2019-04-22T09:30:06.151Z,1017.39
2019-04-22T09:31:11.735Z,1017.41
2019-04-22T09:32:34.769Z,1017.42
2019-04-22T09:33:20.627Z,1017.34
2019-04-22T09:34:30.395Z,1017.39
2019-04-22T09:35:39.198Z,1017.37
2019-04-22T09:36:34.202Z,1017.33
2019-04-22T09:37:55.979Z,1017.42
2019-04-22T09:38:41.184Z,1017.51
2019-04-22T09:39:54.746Z,1017.52
2019-04-22T09:40:52.638Z,1017.48
2019-04-22T09:41:57.237Z,1017.50
2019-04-22T09:43:08.452Z,1017.46
2019-04-22T09:44:02.369Z,1017.46
2019-04-22T09:45:11.250Z,1017.43
2019-04-22T09:46:15.126Z,1017.39
2019-04-22T09:47:19.249Z,1017.43
2019-04-22T09:48:33.543Z,1017.37
2019-04-22T09:50:40.449Z,1017.40
2019-04-22T09:51:38.919Z,1017.38
2019-04-22T09:52:45.654Z,1017.42
2019-04-22T09:53:57.872Z,1017.42
2019-04-22T09:54:59.863Z,1017.41
2019-04-22T09:55:56.859Z,1017.36
2019-04-22T09:56:56.506Z,1017.30
2019-04-22T09:58:05.428Z,1017.29
2019-04-22T09:59:07.497Z,1017.32
2019-04-22T10:02:31.799Z,1017.29
2019-04-22T10:03:29.661Z,1017.33
2019-04-22T10:04:33.051Z,1017.33
2019-04-22T10:05:32.797Z,1017.35
2019-04-22T10:06:53.117Z,1017.37
2019-04-22T10:07:43.249Z,1017.41
2019-04-22T10:09:02.104Z,1017.40
2019-04-22T10:09:59.696Z,1017.44
2019-04-22T10:11:00.723Z,1017.44
2019-04-22T10:11:58.680Z,1017.38
2019-04-22T10:13:06.378Z,1017.45
2019-04-22T10:14:29.049Z,1017.40
2019-04-22T10:15:13.516Z,1017.34
2019-04-22T10:16:27.480Z,1017.37
2019-04-22T10:17:17.517Z,1017.45
2019-04-22T10:18:28.907Z,1017.33
2019-04-22T10:19:34.982Z,1017.36
2019-04-22T10:20:38.258Z,1017.37
2019-04-22T10:21:44.789Z,1017.34
2019-04-22T10:22:46.018Z,1017.33
2019-04-22T10:23:53.369Z,1017.30
2019-04-22T10:24:55.290Z,1017.24
2019-04-22T10:26:02.547Z,1017.20
2019-04-22T10:27:02.771Z,1017.23
2019-04-22T10:28:08.977Z,1017.18
2019-04-22T10:29:14.097Z,1017.15
2019-04-22T10:30:39.142Z,1017.18
2019-04-22T10:31:28.088Z,1017.17
2019-04-22T10:32:27.839Z,1017.16
2019-04-22T10:33:21.945Z,1017.12
2019-04-22T10:34:16.864Z,1017.18
2019-04-22T10:35:17.148Z,1017.13
2019-04-22T10:36:17.178Z,1017.19
2019-04-22T10:37:23.400Z,1017.10
2019-04-22T10:38:24.637Z,1017.06
2019-04-22T10:39:41.189Z,1017.05
2019-04-22T10:40:34.574Z,1017.12
2019-04-22T10:41:38.956Z,1017.03
2019-04-22T10:42:43.409Z,1017.00
2019-04-22T10:43:47.604Z,1017.02
2019-04-22T10:44:51.894Z,1017.11
2019-04-22T10:45:55.525Z,1017.02
2019-04-22T10:47:00.094Z,1017.05
2019-04-22T10:48:04.181Z,1016.99
2019-04-22T10:49:08.636Z,1017.01
2019-04-22T10:50:14.270Z,1017.03
2019-04-22T10:51:18.903Z,1017.04
2019-04-22T10:52:21.699Z,1016.95
2019-04-22T10:53:26.153Z,1016.95
2019-04-22T10:54:31.477Z,1016.92
2019-04-22T10:55:35.183Z,1016.99
2019-04-22T10:56:39.278Z,1016.88
2019-04-22T10:57:44.431Z,1016.84
2019-04-22T10:58:48.924Z,1016.88
2019-04-22T10:59:52.458Z,1016.88
2019-04-22T11:00:58.165Z,1016.87
2019-04-22T11:02:01.459Z,1016.82
2019-04-22T11:03:06.497Z,1016.88
2019-04-22T11:04:11.199Z,1016.83
2019-04-22T11:05:14.574Z,1016.89
2019-04-22T11:06:19.240Z,1016.80
2019-04-22T11:07:31.081Z,1016.81
2019-04-22T11:08:35.010Z,1016.76
2019-04-22T11:09:34.097Z,1016.77
2019-04-22T11:10:50.560Z,1016.80
2019-04-22T11:11:48.750Z,1016.78
2019-04-22T11:12:45.272Z,1016.76
2019-04-22T11:13:49.696Z,1016.79
2019-04-22T11:14:53.966Z,1016.83
2019-04-22T11:15:58.512Z,1016.77
2019-04-22T11:17:05.302Z,1016.73
2019-04-22T11:18:07.450Z,1016.68
2019-04-22T11:19:11.880Z,1016.74
2019-04-22T11:20:15.840Z,1016.68
2019-04-22T11:21:20.366Z,1016.68
2019-04-22T11:22:29.986Z,1016.60
2019-04-22T11:23:29.114Z,1016.59
2019-04-22T11:24:34.690Z,1016.57
2019-04-22T11:25:37.882Z,1016.62
2019-04-22T11:26:43.156Z,1016.60
2019-04-22T11:27:47.226Z,1016.59
2019-04-22T11:28:51.754Z,1016.60
2019-04-22T11:29:55.530Z,1016.60
2019-04-22T11:31:00.768Z,1016.59
2019-04-22T11:32:04.397Z,1016.56
2019-04-22T11:33:08.722Z,1016.56
2019-04-22T11:34:13.069Z,1016.54
2019-04-22T11:35:17.415Z,1016.65
2019-04-22T11:36:21.841Z,1016.59
2019-04-22T11:37:26.226Z,1016.54
2019-04-22T11:38:30.946Z,1016.56
2019-04-22T11:39:36.684Z,1016.55
2019-04-22T11:40:43.614Z,1016.50
2019-04-22T11:41:44.383Z,1016.51
2019-04-22T11:42:48.340Z,1016.46
2019-04-22T11:43:53.593Z,1016.51
2019-04-22T11:44:57.212Z,1016.60
2019-04-22T11:46:01.396Z,1016.49
2019-04-22T11:47:05.805Z,1016.48
2019-04-22T11:48:11.211Z,1016.52
2019-04-22T11:49:16.094Z,1016.47
2019-04-22T11:50:19.893Z,1016.50
2019-04-22T11:51:24.354Z,1016.43
2019-04-22T11:52:28.816Z,1016.43
2019-04-22T11:53:32.092Z,1016.45
2019-04-22T11:54:36.896Z,1016.48
2019-04-22T11:55:44.760Z,1016.42
2019-04-22T11:56:47.461Z,1016.41
2019-04-22T11:57:51.990Z,1016.38
2019-04-22T11:58:57.048Z,1016.38
2019-04-22T12:00:01.031Z,1016.34
2019-04-22T12:01:06.422Z,1016.41
2019-04-22T12:02:10.873Z,1016.37
2019-04-22T12:03:14.738Z,1016.45
2019-04-22T12:04:18.123Z,1016.41
2019-04-22T12:05:23.777Z,1016.31
2019-04-22T12:06:28.119Z,1016.32
2019-04-22T12:07:34.464Z,1016.28
2019-04-22T12:08:37.271Z,1016.30
2019-04-22T12:09:39.953Z,1016.28
2019-04-22T12:10:51.594Z,1016.24
2019-04-22T12:11:49.515Z,1016.18
2019-04-22T12:12:53.921Z,1016.21
2019-04-22T12:13:57.947Z,1016.15
2019-04-22T12:15:01.998Z,1016.12
2019-04-22T12:16:07.513Z,1016.04
2019-04-22T12:17:11.262Z,1016.11
2019-04-22T12:18:15.370Z,1016.06
2019-04-22T12:19:20.823Z,1016.08
2019-04-22T12:20:25.381Z,1016.02
2019-04-22T12:21:29.011Z,1016.09
2019-04-22T12:22:33.974Z,1016.09
2019-04-22T12:23:37.197Z,1016.09
2019-04-22T12:24:42.521Z,1016.05
2019-04-22T12:25:52.490Z,1016.07
2019-04-22T12:26:50.675Z,1016.03
2019-04-22T12:27:55.133Z,1015.90
2019-04-22T12:28:59.330Z,1015.88
2019-04-22T12:30:03.309Z,1015.90
2019-04-22T12:31:07.616Z,1015.91
2019-04-22T12:32:11.962Z,1015.92
2019-04-22T12:33:17.011Z,1015.97
2019-04-22T12:34:21.511Z,1015.93
2019-04-22T12:35:26.287Z,1015.89
2019-04-22T12:36:30.707Z,1015.90
2019-04-22T12:37:42.936Z,1015.85
2019-04-22T12:38:39.915Z,1015.83
2019-04-22T12:39:43.476Z,1015.88
2019-04-22T12:40:53.174Z,1015.80
2019-04-22T12:41:52.154Z,1015.80
2019-04-22T12:42:57.517Z,1015.80
2019-04-22T12:44:01.015Z,1015.82
2019-04-22T12:45:04.771Z,1015.80
2019-04-22T12:46:10.146Z,1015.73
2019-04-22T12:47:14.890Z,1015.78
2019-04-22T12:48:19.093Z,1015.85
2019-04-22T12:49:22.514Z,1015.74
2019-04-22T12:50:31.550Z,1015.69
2019-04-22T12:51:31.395Z,1015.71
2019-04-22T12:52:43.702Z,1015.71
2019-04-22T12:53:40.278Z,1015.69
2019-04-22T12:54:44.615Z,1015.73
2019-04-22T12:55:50.186Z,1015.67
2019-04-22T12:56:53.431Z,1015.71
2019-04-22T12:58:00.800Z,1015.65
2019-04-22T12:59:03.693Z,1015.63
2019-04-22T13:00:07.853Z,1015.64
2019-04-22T13:01:10.984Z,1015.67
2019-04-22T13:02:15.538Z,1015.70
2019-04-22T13:03:20.379Z,1015.64
2019-04-22T13:04:25.256Z,1015.71
2019-04-22T13:05:29.195Z,1015.68
2019-04-22T13:06:32.653Z,1015.70
2019-04-22T13:07:38.000Z,1015.68
2019-04-22T13:08:41.467Z,1015.69
2019-04-22T13:09:45.786Z,1015.62
2019-04-22T13:10:58.401Z,1015.67
2019-04-22T13:11:55.060Z,1015.57
2019-04-22T13:12:58.924Z,1015.64
2019-04-22T13:14:03.362Z,1015.63
2019-04-22T13:15:08.006Z,1015.69
2019-04-22T13:16:13.356Z,1015.66
2019-04-22T13:17:17.095Z,1015.59
2019-04-22T13:18:29.393Z,1015.55
2019-04-22T13:19:28.014Z,1015.59
2019-04-22T13:20:30.471Z,1015.50
2019-04-22T13:21:33.997Z,1015.58
2019-04-22T13:22:38.867Z,1015.45
2019-04-22T13:23:44.414Z,1015.48
2019-04-22T13:24:47.982Z,1015.39
2019-04-22T13:25:52.654Z,1015.50
2019-04-22T13:26:57.067Z,1015.52
2019-04-22T13:28:00.996Z,1015.51
2019-04-22T13:29:05.285Z,1015.49
2019-04-22T13:30:10.123Z,1015.45
2019-04-22T13:31:13.980Z,1015.46
2019-04-22T13:32:18.631Z,1015.46
2019-04-22T13:33:23.187Z,1015.43
2019-04-22T13:34:33.704Z,1015.31
2019-04-22T13:35:31.847Z,1015.40
2019-04-22T13:36:36.649Z,1015.37
2019-04-22T13:37:41.089Z,1015.30
2019-04-22T13:38:44.939Z,1015.29
2019-04-22T13:39:49.279Z,1015.35
2019-04-22T13:41:07.268Z,1015.36
2019-04-22T13:42:02.290Z,1015.38
2019-04-22T13:43:02.768Z,1015.30
2019-04-22T13:44:07.062Z,1015.30
2019-04-22T13:45:11.626Z,1015.20
2019-04-22T13:46:16.640Z,1015.23
2019-04-22T13:47:34.885Z,1015.21
2019-04-22T13:48:38.734Z,1015.19
2019-04-22T13:50:16.695Z,1015.20
2019-04-22T13:51:15.132Z,1015.21
2019-04-22T13:52:15.562Z,1015.20
2019-04-22T13:53:18.424Z,1015.13
2019-04-22T13:54:42.485Z,1015.16
2019-04-22T13:55:16.220Z,1015.15
2019-04-22T13:56:13.892Z,1015.09
2019-04-22T13:57:22.950Z,1015.17
2019-04-22T13:58:15.830Z,1015.13
2019-04-22T13:59:18.351Z,1015.15
2019-04-22T14:00:13.596Z,1015.11
2019-04-22T14:01:16.564Z,1015.07
2019-04-22T14:02:20.652Z,1015.05
2019-04-22T14:03:24.999Z,1015.02
2019-04-22T14:04:30.459Z,1015.03
2019-04-22T14:05:34.944Z,1015.12
2019-04-22T14:06:38.831Z,1015.04
2019-04-22T14:07:43.155Z,1015.05
2019-04-22T14:08:47.189Z,1015.07
2019-04-22T14:09:51.253Z,1015.07
2019-04-22T14:11:00.373Z,1015.07
2019-04-22T14:12:05.218Z,1015.08
2019-04-22T14:13:05.640Z,1015.10
2019-04-22T14:14:12.733Z,1015.09
2019-04-22T14:15:15.870Z,1015.12
2019-04-22T14:16:19.581Z,1015.14
2019-04-22T14:17:25.020Z,1015.10
2019-04-22T14:18:28.727Z,1015.07
2019-04-22T14:19:33.940Z,1015.03
2019-04-22T14:20:36.908Z,1015.02
2019-04-22T14:21:44.295Z,1015.06
2019-04-22T14:22:46.307Z,1015.04
2019-04-22T14:23:50.941Z,1015.00
2019-04-22T14:24:54.546Z,1015.03
2019-04-22T14:25:59.134Z,1014.98
2019-04-22T14:27:17.572Z,1014.93
2019-04-22T14:28:12.043Z,1014.97
2019-04-22T14:29:11.711Z,1014.99
2019-04-22T14:30:16.801Z,1014.91